createdAt,value
2023-04-30T00:00:33.832Z,45.77
2023-04-30T00:01:33.759Z,45.77
2023-04-30T00:02:33.929Z,45.77
2023-04-30T00:03:33.850Z,45.77
2023-04-30T00:04:33.775Z,45.77
2023-04-30T00:05:33.720Z,45.77
2023-04-30T00:06:33.828Z,45.77
2023-04-30T00:07:33.698Z,45.77
2023-04-30T00:08:33.732Z,45.77
2023-04-30T00:09:33.672Z,45.77
2023-04-30T00:10:33.721Z,45.77
2023-04-30T00:11:33.659Z,45.77
2023-04-30T00:12:33.684Z,45.77
2023-04-30T00:13:33.629Z,45.77
2023-04-30T00:14:33.681Z,45.77
2023-04-30T00:15:33.611Z,45.77
2023-04-30T00:16:33.665Z,45.77
2023-04-30T00:17:33.629Z,45.77
2023-04-30T00:18:33.625Z,45.77
2023-04-30T00:19:33.565Z,45.77
2023-04-30T00:20:33.609Z,45.77
2023-04-30T00:21:33.599Z,45.77
2023-04-30T00:22:33.588Z,45.77
2023-04-30T00:23:33.520Z,45.77
2023-04-30T00:24:33.575Z,45.77
2023-04-30T00:25:33.505Z,45.77
2023-04-30T00:26:33.552Z,45.77
2023-04-30T00:27:33.475Z,45.86
2023-04-30T00:28:33.532Z,45.86
2023-04-30T00:29:33.460Z,45.86
2023-04-30T00:30:33.495Z,45.77
2023-04-30T00:31:33.554Z,45.86
2023-04-30T00:32:33.499Z,45.86
2023-04-30T00:33:33.412Z,45.86
2023-04-30T00:34:33.449Z,45.86
2023-04-30T00:35:33.406Z,45.86
2023-04-30T00:36:33.440Z,45.86
2023-04-30T00:37:33.376Z,45.86
2023-04-30T00:38:33.434Z,45.86
2023-04-30T00:39:33.371Z,45.86
2023-04-30T00:40:33.385Z,45.86
2023-04-30T00:41:33.329Z,45.86
2023-04-30T00:42:33.382Z,45.86
2023-04-30T00:43:33.303Z,45.86
2023-04-30T00:44:33.349Z,45.86
2023-04-30T00:45:33.316Z,45.86
2023-04-30T00:46:33.481Z,45.86
2023-04-30T00:47:33.293Z,45.86
2023-04-30T00:48:33.311Z,45.86
2023-04-30T00:49:33.246Z,45.86
2023-04-30T00:50:33.280Z,45.86
2023-04-30T00:51:33.217Z,45.86
2023-04-30T00:52:33.271Z,45.86
2023-04-30T00:53:33.187Z,45.86
2023-04-30T00:54:33.245Z,45.86
2023-04-30T00:55:33.174Z,45.86
2023-04-30T00:56:33.235Z,45.86
2023-04-30T00:57:33.151Z,45.86
2023-04-30T00:58:33.200Z,45.86
2023-04-30T00:59:33.130Z,45.86
2023-04-30T01:00:33.196Z,45.86
2023-04-30T01:01:33.165Z,45.86
2023-04-30T01:02:33.215Z,45.86
2023-04-30T01:03:33.238Z,45.86
2023-04-30T01:04:33.121Z,45.86
2023-04-30T01:05:33.061Z,45.86
2023-04-30T01:06:33.149Z,45.96
2023-04-30T01:07:33.040Z,45.96
2023-04-30T01:08:34.097Z,45.86
2023-04-30T01:09:33.089Z,45.96
2023-04-30T01:10:32.994Z,45.86
2023-04-30T01:11:33.068Z,45.96
2023-04-30T01:12:32.974Z,45.96
2023-04-30T01:13:33.056Z,45.89
2023-04-30T01:14:32.948Z,45.96
2023-04-30T01:15:33.083Z,45.86
2023-04-30T01:16:32.968Z,45.89
2023-04-30T01:17:32.990Z,45.96
2023-04-30T01:18:32.964Z,45.86
2023-04-30T01:19:32.970Z,45.96
2023-04-30T01:20:32.889Z,45.86
2023-04-30T01:21:32.962Z,45.86
2023-04-30T01:22:32.859Z,45.98
2023-04-30T01:23:32.938Z,45.86
2023-04-30T01:24:32.842Z,45.96
2023-04-30T01:25:32.917Z,45.96
2023-04-30T01:26:32.816Z,45.86
2023-04-30T01:27:32.883Z,45.96
2023-04-30T01:28:32.801Z,45.96
2023-04-30T01:29:32.860Z,45.96
2023-04-30T01:30:32.768Z,45.86
2023-04-30T01:31:32.886Z,45.98
2023-04-30T01:32:32.884Z,45.98
2023-04-30T01:33:32.764Z,45.96
2023-04-30T01:34:32.805Z,45.98
2023-04-30T01:35:32.731Z,45.98
2023-04-30T01:36:32.785Z,45.98
2023-04-30T01:37:32.707Z,45.96
2023-04-30T01:38:32.750Z,45.96
2023-04-30T01:39:32.682Z,45.98
2023-04-30T01:40:32.723Z,45.98
2023-04-30T01:41:32.664Z,45.98
2023-04-30T01:42:32.733Z,45.98
2023-04-30T01:43:32.633Z,45.98
2023-04-30T01:44:32.701Z,45.98
2023-04-30T01:45:32.616Z,45.98
2023-04-30T01:46:32.723Z,45.96
2023-04-30T01:47:32.629Z,45.98
2023-04-30T01:48:32.726Z,45.98
2023-04-30T01:49:32.570Z,45.98
2023-04-30T01:50:32.617Z,45.98
2023-04-30T01:51:32.556Z,45.98
2023-04-30T01:52:32.641Z,46.08
2023-04-30T01:53:32.530Z,45.98
2023-04-30T01:54:32.581Z,45.98
2023-04-30T01:55:32.508Z,46.08
2023-04-30T01:56:32.554Z,46.08
2023-04-30T01:57:32.495Z,45.98
2023-04-30T01:58:32.525Z,45.96
2023-04-30T01:59:32.463Z,45.98
2023-04-30T02:00:32.514Z,46.08
2023-04-30T02:01:32.527Z,45.98
2023-04-30T02:02:32.570Z,45.98
2023-04-30T02:03:32.503Z,46.08
2023-04-30T02:04:32.600Z,46.08
2023-04-30T02:05:32.401Z,46.08
2023-04-30T02:06:32.467Z,46.08
2023-04-30T02:07:32.376Z,46.08
2023-04-30T02:08:32.422Z,46.08
2023-04-30T02:09:32.352Z,46.08
2023-04-30T02:10:32.393Z,45.98
2023-04-30T02:11:32.326Z,46.08
2023-04-30T02:12:32.376Z,46.08
2023-04-30T02:13:32.304Z,46.08
2023-04-30T02:14:32.353Z,46.08
2023-04-30T02:15:32.283Z,46.08
2023-04-30T02:16:32.421Z,46.08
2023-04-30T02:17:32.280Z,46.08
2023-04-30T02:18:32.324Z,46.08
2023-04-30T02:19:32.234Z,46.08
2023-04-30T02:20:32.285Z,46.08
2023-04-30T02:21:32.214Z,46.08
2023-04-30T02:22:32.276Z,46.08
2023-04-30T02:23:32.191Z,46.08
2023-04-30T02:24:32.233Z,46.08
2023-04-30T02:25:32.167Z,46.08
2023-04-30T02:26:32.217Z,46.08
2023-04-30T02:27:32.151Z,46.08
2023-04-30T02:28:32.189Z,46.08
2023-04-30T02:29:32.127Z,46.08
2023-04-30T02:30:32.175Z,46.08
2023-04-30T02:31:32.163Z,46.08
2023-04-30T02:32:32.243Z,46.08
2023-04-30T02:33:32.082Z,46.08
2023-04-30T02:34:32.272Z,46.19
2023-04-30T02:35:32.060Z,46.08
2023-04-30T02:36:32.147Z,46.19
2023-04-30T02:37:32.027Z,46.08
2023-04-30T02:38:32.085Z,46.08
2023-04-30T02:39:32.012Z,46.08
2023-04-30T02:40:32.061Z,46.19
2023-04-30T02:41:31.992Z,46.08
2023-04-30T02:42:32.050Z,46.08
2023-04-30T02:43:31.965Z,46.19
2023-04-30T02:44:32.009Z,46.19
2023-04-30T02:45:31.979Z,46.08
2023-04-30T02:46:31.994Z,46.19
2023-04-30T02:47:31.937Z,46.19
2023-04-30T02:48:31.976Z,46.19
2023-04-30T02:49:31.900Z,46.19
2023-04-30T02:50:31.938Z,46.19
2023-04-30T02:51:31.881Z,46.19
2023-04-30T02:52:31.925Z,46.19
2023-04-30T02:53:31.856Z,46.19
2023-04-30T02:54:31.905Z,46.19
2023-04-30T02:55:31.834Z,46.19
2023-04-30T02:56:31.884Z,46.19
2023-04-30T02:57:31.811Z,46.19
2023-04-30T02:58:31.849Z,46.19
2023-04-30T02:59:31.786Z,46.19
2023-04-30T03:00:32.034Z,46.08
2023-04-30T03:01:31.802Z,46.19
2023-04-30T03:02:31.881Z,46.19
2023-04-30T03:03:31.813Z,46.19
2023-04-30T03:04:31.795Z,46.19
2023-04-30T03:05:31.724Z,46.19
2023-04-30T03:06:31.802Z,46.19
2023-04-30T03:07:31.705Z,46.19
2023-04-30T03:08:31.748Z,46.19
2023-04-30T03:09:31.675Z,46.19
2023-04-30T03:10:31.742Z,46.19
2023-04-30T03:11:31.653Z,46.19
2023-04-30T03:12:31.696Z,46.19
2023-04-30T03:13:31.628Z,46.19
2023-04-30T03:14:31.677Z,46.19
2023-04-30T03:15:31.610Z,46.19
2023-04-30T03:16:31.749Z,46.19
2023-04-30T03:17:31.613Z,46.19
2023-04-30T03:18:31.633Z,46.19
2023-04-30T03:19:31.564Z,46.19
2023-04-30T03:20:31.610Z,46.19
2023-04-30T03:21:31.553Z,46.19
2023-04-30T03:22:31.593Z,46.19
2023-04-30T03:23:31.518Z,46.19
2023-04-30T03:24:31.578Z,46.19
2023-04-30T03:25:31.502Z,46.19
2023-04-30T03:26:31.543Z,46.19
2023-04-30T03:27:31.482Z,46.19
2023-04-30T03:28:31.518Z,46.19
2023-04-30T03:29:31.453Z,46.19
2023-04-30T03:30:31.495Z,46.19
2023-04-30T03:31:31.449Z,46.19
2023-04-30T03:32:31.486Z,46.19
2023-04-30T03:33:31.508Z,46.19
2023-04-30T03:34:31.346Z,46.19
2023-04-30T03:35:31.412Z,46.19
2023-04-30T03:36:31.431Z,46.19
2023-04-30T03:37:31.366Z,46.19
2023-04-30T03:38:31.374Z,46.19
2023-04-30T03:39:31.297Z,46.19
2023-04-30T03:40:31.369Z,46.19
2023-04-30T03:41:31.389Z,46.19
2023-04-30T03:42:31.259Z,46.19
2023-04-30T03:43:31.338Z,46.19
2023-04-30T03:44:31.222Z,46.19
2023-04-30T03:45:31.311Z,46.19
2023-04-30T03:46:31.248Z,46.19
2023-04-30T03:47:31.306Z,46.19
2023-04-30T03:48:31.185Z,46.19
2023-04-30T03:49:31.244Z,46.19
2023-04-30T03:50:31.154Z,46.19
2023-04-30T03:51:31.238Z,46.19
2023-04-30T03:52:31.133Z,46.19
2023-04-30T03:53:31.210Z,46.19
2023-04-30T03:54:31.111Z,46.19
2023-04-30T03:55:31.177Z,46.28
2023-04-30T03:56:31.093Z,46.28
2023-04-30T03:57:31.155Z,46.28
2023-04-30T03:58:31.069Z,46.28
2023-04-30T03:59:31.135Z,46.31
2023-04-30T04:00:31.045Z,46.28
2023-04-30T04:01:31.130Z,46.28
2023-04-30T04:02:31.154Z,46.28
2023-04-30T04:03:31.089Z,46.28
2023-04-30T04:04:31.153Z,46.31
2023-04-30T04:05:31.198Z,46.28
2023-04-30T04:06:31.135Z,46.19
2023-04-30T04:07:31.052Z,46.28
2023-04-30T04:08:30.955Z,46.28
2023-04-30T04:09:31.029Z,46.28
2023-04-30T04:10:30.966Z,46.28
2023-04-30T04:11:31.159Z,46.31
2023-04-30T04:12:30.915Z,46.28
2023-04-30T04:13:30.968Z,46.19
2023-04-30T04:14:30.905Z,46.19
2023-04-30T04:15:31.051Z,46.28
2023-04-30T04:16:30.920Z,46.19
2023-04-30T04:17:30.943Z,46.19
2023-04-30T04:18:30.859Z,46.19
2023-04-30T04:19:30.897Z,46.19
2023-04-30T04:20:30.832Z,46.19
2023-04-30T04:21:30.876Z,46.19
2023-04-30T04:22:30.814Z,46.19
2023-04-30T04:23:30.857Z,46.19
2023-04-30T04:24:30.807Z,46.19
2023-04-30T04:25:30.912Z,46.19
2023-04-30T04:26:30.768Z,46.19
2023-04-30T04:27:30.816Z,46.19
2023-04-30T04:28:30.753Z,46.19
2023-04-30T04:29:30.792Z,46.19
2023-04-30T04:30:30.718Z,46.19
2023-04-30T04:31:30.799Z,46.19
2023-04-30T04:32:30.739Z,46.19
2023-04-30T04:33:30.745Z,46.19
2023-04-30T04:34:30.672Z,46.19
2023-04-30T04:35:30.719Z,46.19
2023-04-30T04:36:30.643Z,46.19
2023-04-30T04:37:30.706Z,46.19
2023-04-30T04:38:30.626Z,46.08
2023-04-30T04:39:30.666Z,46.19
2023-04-30T04:40:31.751Z,46.08
2023-04-30T04:41:30.648Z,46.19
2023-04-30T04:42:30.581Z,46.08
2023-04-30T04:43:30.630Z,46.08
2023-04-30T04:44:30.561Z,46.08
2023-04-30T04:45:30.610Z,46.08
2023-04-30T04:46:30.572Z,46.08
2023-04-30T04:47:30.614Z,46.08
2023-04-30T04:48:30.509Z,46.08
2023-04-30T04:49:30.559Z,46.08
2023-04-30T04:50:30.491Z,46.08
2023-04-30T04:51:30.529Z,46.08
2023-04-30T04:52:30.477Z,46.08
2023-04-30T04:53:30.956Z,46.08
2023-04-30T04:54:30.444Z,45.98
2023-04-30T04:55:30.490Z,45.98
2023-04-30T04:56:30.428Z,45.98
2023-04-30T04:57:30.474Z,45.98
2023-04-30T04:58:30.398Z,45.98
2023-04-30T04:59:30.448Z,45.98
2023-04-30T05:00:30.373Z,45.86
2023-04-30T05:01:30.559Z,45.96
2023-04-30T05:02:30.404Z,45.86
2023-04-30T05:03:30.538Z,45.86
2023-04-30T05:04:30.330Z,45.86
2023-04-30T05:05:30.379Z,45.77
2023-04-30T05:06:30.328Z,45.77
2023-04-30T05:07:30.351Z,45.54
2023-04-30T05:08:30.288Z,45.54
2023-04-30T05:09:30.326Z,45.34
2023-04-30T05:10:30.260Z,45.12
2023-04-30T05:11:30.312Z,45.01
2023-04-30T05:12:30.246Z,44.79
2023-04-30T05:13:30.286Z,44.70
2023-04-30T05:14:30.215Z,44.50
2023-04-30T05:15:30.252Z,44.28
2023-04-30T05:16:30.250Z,44.07
2023-04-30T05:17:30.272Z,43.87
2023-04-30T05:18:30.176Z,43.75
2023-04-30T05:19:30.221Z,43.55
2023-04-30T05:20:30.152Z,43.35
2023-04-30T05:21:30.216Z,43.13
2023-04-30T05:22:30.141Z,42.93
2023-04-30T05:23:30.181Z,42.83
2023-04-30T05:24:30.111Z,42.83
2023-04-30T05:25:30.145Z,42.73
2023-04-30T05:26:30.101Z,42.61
2023-04-30T05:27:30.147Z,42.51
2023-04-30T05:28:30.058Z,42.31
2023-04-30T05:29:30.115Z,42.21
2023-04-30T05:30:30.042Z,42.11
2023-04-30T05:31:30.149Z,41.99
2023-04-30T05:32:30.085Z,41.89
2023-04-30T05:33:30.068Z,41.79
2023-04-30T05:34:30.003Z,41.69
2023-04-30T05:35:30.051Z,41.59
2023-04-30T05:36:29.979Z,41.49
2023-04-30T05:37:30.014Z,41.47
2023-04-30T05:38:29.955Z,41.47
2023-04-30T05:39:30.004Z,41.47
2023-04-30T05:40:29.943Z,41.37
2023-04-30T05:41:29.985Z,41.37
2023-04-30T05:42:29.909Z,41.27
2023-04-30T05:43:29.952Z,41.27
2023-04-30T05:44:29.893Z,41.25
2023-04-30T05:45:29.985Z,41.25
2023-04-30T05:46:29.938Z,41.15
2023-04-30T05:47:29.921Z,41.05
2023-04-30T05:48:29.846Z,40.93
2023-04-30T05:49:29.898Z,40.93
2023-04-30T05:50:29.825Z,40.83
2023-04-30T05:51:29.879Z,40.63
2023-04-30T05:52:29.808Z,40.61
2023-04-30T05:53:29.875Z,40.31
2023-04-30T05:54:29.783Z,39.89
2023-04-30T05:55:29.880Z,39.37
2023-04-30T05:56:29.755Z,38.74
2023-04-30T05:57:29.804Z,37.91
2023-04-30T05:58:29.753Z,37.29
2023-04-30T05:59:29.806Z,36.66
2023-04-30T06:00:29.716Z,36.05
2023-04-30T06:01:29.772Z,35.54
2023-04-30T06:02:29.789Z,35.00
2023-04-30T06:03:29.747Z,34.79
2023-04-30T06:04:29.676Z,34.28
2023-04-30T06:05:29.754Z,34.06
2023-04-30T06:06:29.660Z,33.75
2023-04-30T06:07:29.695Z,33.44
2023-04-30T06:08:29.637Z,33.02
2023-04-30T06:09:29.670Z,32.81
2023-04-30T06:10:29.624Z,32.31
2023-04-30T06:11:29.662Z,32.00
2023-04-30T06:12:29.591Z,31.79
2023-04-30T06:13:29.631Z,31.28
2023-04-30T06:14:29.568Z,31.17
2023-04-30T06:15:29.621Z,30.78
2023-04-30T06:16:29.574Z,30.66
2023-04-30T06:17:29.634Z,30.26
2023-04-30T06:18:29.544Z,30.05
2023-04-30T06:19:29.597Z,29.84
2023-04-30T06:20:29.524Z,29.74
2023-04-30T06:21:29.565Z,29.63
2023-04-30T06:22:29.483Z,29.33
2023-04-30T06:23:29.536Z,29.22
2023-04-30T06:24:29.458Z,29.13
2023-04-30T06:25:29.501Z,28.91
2023-04-30T06:26:29.447Z,28.72
2023-04-30T06:27:29.487Z,28.60
2023-04-30T06:28:29.418Z,28.41
2023-04-30T06:29:29.461Z,28.21
2023-04-30T06:30:29.395Z,28.10
2023-04-30T06:31:29.486Z,28.10
2023-04-30T06:32:29.396Z,27.89
2023-04-30T06:33:29.413Z,27.79
2023-04-30T06:34:29.352Z,27.79
2023-04-30T06:35:29.399Z,27.68
2023-04-30T06:36:29.344Z,27.49
2023-04-30T06:37:29.375Z,27.49
2023-04-30T06:38:29.309Z,27.38
2023-04-30T06:39:29.402Z,27.27
2023-04-30T06:40:29.288Z,27.08
2023-04-30T06:41:29.351Z,27.08
2023-04-30T06:42:29.263Z,27.08
2023-04-30T06:43:29.326Z,26.97
2023-04-30T06:44:29.241Z,26.87
2023-04-30T06:45:29.295Z,26.77
2023-04-30T06:46:29.255Z,26.77
2023-04-30T06:47:29.297Z,26.66
2023-04-30T06:48:29.199Z,26.56
2023-04-30T06:49:29.252Z,26.56
2023-04-30T06:50:29.172Z,26.56
2023-04-30T06:51:29.219Z,26.46
2023-04-30T06:52:29.155Z,26.35
2023-04-30T06:53:29.203Z,26.35
2023-04-30T06:54:29.139Z,26.25
2023-04-30T06:55:29.196Z,26.15
2023-04-30T06:56:29.108Z,26.15
2023-04-30T06:57:29.170Z,26.06
2023-04-30T06:58:29.110Z,26.04
2023-04-30T06:59:29.136Z,25.85
2023-04-30T07:00:29.073Z,25.85
2023-04-30T07:01:29.168Z,25.85
2023-04-30T07:02:29.147Z,25.85
2023-04-30T07:03:29.318Z,25.75
2023-04-30T07:04:29.028Z,25.65
2023-04-30T07:05:29.088Z,25.65
2023-04-30T07:06:29.098Z,25.67
2023-04-30T07:07:29.054Z,25.76
2023-04-30T07:08:28.982Z,25.87
2023-04-30T07:09:29.019Z,25.98
2023-04-30T07:10:28.967Z,26.18
2023-04-30T07:11:29.094Z,26.29
2023-04-30T07:12:28.952Z,26.70
2023-04-30T07:13:28.993Z,27.02
2023-04-30T07:14:28.909Z,27.42
2023-04-30T07:15:28.976Z,27.85
2023-04-30T07:16:28.966Z,28.25
2023-04-30T07:17:28.956Z,28.87
2023-04-30T07:18:28.878Z,29.39
2023-04-30T07:19:28.912Z,29.90
2023-04-30T07:20:28.849Z,30.42
2023-04-30T07:21:28.902Z,30.83
2023-04-30T07:22:28.833Z,31.34
2023-04-30T07:23:30.534Z,31.65
2023-04-30T07:24:28.806Z,32.06
2023-04-30T07:25:28.843Z,32.48
2023-04-30T07:26:28.783Z,32.77
2023-04-30T07:27:28.825Z,33.09
2023-04-30T07:28:28.761Z,33.30
2023-04-30T07:29:28.800Z,33.50
2023-04-30T07:30:28.738Z,33.81
2023-04-30T07:31:28.822Z,33.91
2023-04-30T07:32:28.719Z,34.22
2023-04-30T07:33:28.767Z,34.33
2023-04-30T07:34:28.697Z,34.52
2023-04-30T07:35:28.736Z,34.62
2023-04-30T07:36:28.674Z,34.74
2023-04-30T07:37:28.723Z,34.84
2023-04-30T07:38:28.652Z,35.04
2023-04-30T07:39:28.700Z,35.15
2023-04-30T07:40:35.848Z,35.26
2023-04-30T07:41:28.686Z,35.26
2023-04-30T07:42:28.627Z,35.35
2023-04-30T07:43:29.970Z,35.45
2023-04-30T07:44:28.590Z,35.55
2023-04-30T07:45:28.635Z,35.55
2023-04-30T07:46:28.646Z,35.65
2023-04-30T07:47:28.654Z,35.66
2023-04-30T07:48:28.546Z,35.77
2023-04-30T07:49:28.591Z,35.87
2023-04-30T07:50:28.539Z,35.87
2023-04-30T07:51:28.560Z,35.87
2023-04-30T07:52:28.500Z,35.87
2023-04-30T07:53:28.537Z,35.96
2023-04-30T07:54:28.476Z,36.07
2023-04-30T07:55:28.514Z,36.16
2023-04-30T07:56:28.457Z,36.16
2023-04-30T07:57:28.525Z,36.16
2023-04-30T07:58:28.434Z,36.26
2023-04-30T07:59:28.500Z,36.26
2023-04-30T08:00:28.417Z,36.36
2023-04-30T08:01:28.465Z,36.36
2023-04-30T08:02:28.532Z,36.46
2023-04-30T08:03:28.537Z,36.46
2023-04-30T08:04:28.392Z,36.46
2023-04-30T08:05:28.520Z,36.46
2023-04-30T08:06:28.365Z,36.46
2023-04-30T08:07:28.400Z,36.56
2023-04-30T08:08:28.321Z,36.56
2023-04-30T08:09:28.397Z,36.56
2023-04-30T08:10:28.309Z,36.56
2023-04-30T08:11:28.358Z,36.66
2023-04-30T08:12:28.297Z,36.56
2023-04-30T08:13:28.341Z,36.66
2023-04-30T08:14:28.269Z,36.66
2023-04-30T08:15:28.921Z,36.66
2023-04-30T08:16:28.283Z,36.66
2023-04-30T08:17:28.311Z,36.66
2023-04-30T08:18:28.228Z,36.66
2023-04-30T08:19:28.279Z,36.66
2023-04-30T08:20:28.200Z,36.66
2023-04-30T08:21:28.249Z,36.66
2023-04-30T08:22:28.175Z,36.76
2023-04-30T08:23:28.237Z,36.66
2023-04-30T08:24:28.161Z,36.76
2023-04-30T08:25:28.205Z,36.76
2023-04-30T08:26:28.129Z,36.76
2023-04-30T08:27:28.173Z,36.76
2023-04-30T08:28:28.109Z,36.76
2023-04-30T08:29:28.181Z,36.76
2023-04-30T08:30:28.080Z,36.76
2023-04-30T08:31:28.186Z,36.76
2023-04-30T08:32:28.172Z,36.76
2023-04-30T08:33:28.156Z,36.76
2023-04-30T08:34:28.025Z,36.76
2023-04-30T08:35:28.237Z,36.76
2023-04-30T08:36:28.011Z,36.76
2023-04-30T08:37:28.094Z,36.86
2023-04-30T08:38:28.400Z,36.76
2023-04-30T08:39:28.064Z,36.86
2023-04-30T08:40:43.746Z,36.86
2023-04-30T08:41:28.090Z,36.76
2023-04-30T08:42:27.950Z,36.76
2023-04-30T08:43:28.121Z,36.86
2023-04-30T08:44:27.930Z,36.86
2023-04-30T08:45:27.997Z,36.86
2023-04-30T08:46:27.970Z,36.76
2023-04-30T08:47:28.073Z,36.76
2023-04-30T08:48:27.887Z,36.76
2023-04-30T08:49:28.018Z,36.86
2023-04-30T08:50:27.864Z,36.86
2023-04-30T08:51:28.128Z,36.86
2023-04-30T08:52:27.837Z,36.86
2023-04-30T08:53:27.907Z,36.86
2023-04-30T08:54:27.816Z,36.86
2023-04-30T08:55:27.881Z,36.86
2023-04-30T08:56:27.793Z,36.76
2023-04-30T08:57:27.867Z,36.86
2023-04-30T08:58:27.776Z,36.86
2023-04-30T08:59:27.863Z,36.86
2023-04-30T09:00:27.747Z,36.86
2023-04-30T09:01:27.874Z,36.86
2023-04-30T09:02:27.809Z,36.88
2023-04-30T09:03:27.909Z,36.98
2023-04-30T09:04:27.707Z,36.98
2023-04-30T09:05:27.768Z,36.98
2023-04-30T09:06:27.770Z,37.07
2023-04-30T09:07:27.758Z,37.07
2023-04-30T09:08:27.663Z,37.07
2023-04-30T09:09:27.729Z,37.07
2023-04-30T09:10:27.641Z,37.07
2023-04-30T09:11:27.757Z,37.18
2023-04-30T09:12:27.628Z,37.18
2023-04-30T09:13:27.695Z,37.18
2023-04-30T09:14:27.594Z,37.28
2023-04-30T09:15:27.677Z,37.28
2023-04-30T09:16:27.761Z,37.29
2023-04-30T09:17:27.703Z,37.29
2023-04-30T09:18:27.552Z,37.39
2023-04-30T09:19:27.647Z,37.49
2023-04-30T09:20:27.787Z,37.39
2023-04-30T09:21:27.610Z,37.49
2023-04-30T09:22:27.515Z,37.49
2023-04-30T09:23:27.574Z,37.59
2023-04-30T09:24:27.487Z,37.59
2023-04-30T09:25:27.564Z,37.69
2023-04-30T09:26:27.459Z,37.71
2023-04-30T09:27:27.530Z,37.71
2023-04-30T09:28:27.459Z,37.71
2023-04-30T09:29:27.511Z,37.81
2023-04-30T09:30:27.424Z,37.81
2023-04-30T09:31:27.505Z,37.91
2023-04-30T09:32:27.417Z,37.91
2023-04-30T09:33:27.482Z,37.91
2023-04-30T09:34:27.378Z,37.91
2023-04-30T09:35:27.452Z,38.01
2023-04-30T09:36:27.357Z,38.01
2023-04-30T09:37:27.421Z,38.01
2023-04-30T09:38:27.330Z,38.01
2023-04-30T09:39:27.534Z,38.11
2023-04-30T09:40:27.313Z,38.12
2023-04-30T09:41:27.379Z,38.11
2023-04-30T09:42:27.303Z,38.11
2023-04-30T09:43:27.366Z,38.23
2023-04-30T09:44:27.299Z,38.23
2023-04-30T09:45:27.371Z,38.23
2023-04-30T09:46:27.282Z,38.23
2023-04-30T09:47:27.369Z,38.23
2023-04-30T09:48:27.266Z,38.23
2023-04-30T09:49:27.625Z,38.33
2023-04-30T09:50:27.213Z,38.33
2023-04-30T09:51:27.280Z,38.33
2023-04-30T09:52:27.186Z,38.33
2023-04-30T09:53:27.254Z,38.42
2023-04-30T09:54:27.169Z,38.42
2023-04-30T09:55:27.240Z,38.42
2023-04-30T09:56:27.149Z,38.52
2023-04-30T09:57:27.220Z,38.54
2023-04-30T09:58:27.124Z,38.54
2023-04-30T09:59:27.193Z,38.54
2023-04-30T10:00:27.101Z,38.54
2023-04-30T10:01:27.288Z,38.62
2023-04-30T10:02:27.285Z,38.64
2023-04-30T10:03:27.114Z,38.62
2023-04-30T10:04:27.350Z,38.52
2023-04-30T10:05:27.061Z,38.52
2023-04-30T10:06:27.261Z,38.62
2023-04-30T10:07:27.033Z,38.62
2023-04-30T10:08:27.085Z,38.52
2023-04-30T10:09:27.014Z,38.52
2023-04-30T10:10:27.064Z,38.62
2023-04-30T10:11:26.991Z,38.52
2023-04-30T10:12:27.032Z,38.52
2023-04-30T10:13:26.969Z,38.52
2023-04-30T10:14:27.013Z,38.52
2023-04-30T10:15:26.948Z,38.52
2023-04-30T10:16:27.088Z,38.52
2023-04-30T10:17:26.947Z,38.52
2023-04-30T10:18:26.974Z,38.52
2023-04-30T10:19:26.905Z,38.52
2023-04-30T10:20:26.947Z,38.52
2023-04-30T10:21:26.903Z,38.52
2023-04-30T10:22:27.147Z,38.52
2023-04-30T10:23:26.862Z,38.52
2023-04-30T10:24:26.912Z,38.52
2023-04-30T10:25:26.841Z,38.52
2023-04-30T10:26:26.882Z,38.52
2023-04-30T10:27:26.825Z,38.42
2023-04-30T10:28:26.865Z,38.42
2023-04-30T10:29:26.807Z,38.42
2023-04-30T10:30:26.859Z,38.42
2023-04-30T10:31:26.871Z,38.42
2023-04-30T10:32:26.918Z,38.42
2023-04-30T10:33:26.815Z,38.42
2023-04-30T10:34:26.809Z,38.42
2023-04-30T10:35:26.737Z,38.42
2023-04-30T10:36:26.780Z,38.42
2023-04-30T10:37:26.706Z,38.42
2023-04-30T10:38:26.774Z,38.42
2023-04-30T10:39:26.692Z,38.42
2023-04-30T10:40:26.730Z,38.42
2023-04-30T10:41:26.689Z,38.42
2023-04-30T10:42:26.724Z,38.52
2023-04-30T10:43:26.644Z,38.52
2023-04-30T10:44:26.690Z,38.52
2023-04-30T10:45:26.624Z,38.54
2023-04-30T10:46:26.722Z,38.64
2023-04-30T10:47:26.611Z,38.64
2023-04-30T10:48:26.667Z,38.64
2023-04-30T10:49:26.586Z,38.64
2023-04-30T10:50:26.625Z,38.64
2023-04-30T10:51:26.556Z,38.74
2023-04-30T10:52:26.603Z,38.74
2023-04-30T10:53:26.536Z,38.74
2023-04-30T10:54:26.577Z,38.74
2023-04-30T10:55:27.829Z,38.74
2023-04-30T10:56:26.567Z,38.74
2023-04-30T10:57:26.516Z,38.84
2023-04-30T10:58:26.568Z,38.74
2023-04-30T10:59:26.465Z,38.84
2023-04-30T11:00:26.533Z,38.84
2023-04-30T11:01:26.515Z,38.74
2023-04-30T11:02:26.545Z,38.74
2023-04-30T11:03:26.425Z,38.84
2023-04-30T11:04:26.503Z,38.74
2023-04-30T11:05:26.407Z,38.74
2023-04-30T11:06:26.565Z,38.74
2023-04-30T11:07:26.401Z,38.74
2023-04-30T11:08:26.420Z,38.74
2023-04-30T11:09:26.373Z,38.84
2023-04-30T11:10:26.429Z,38.84
2023-04-30T11:11:26.342Z,38.74
2023-04-30T11:12:26.408Z,38.84
2023-04-30T11:13:26.319Z,38.84
2023-04-30T11:14:26.452Z,38.84
2023-04-30T11:15:26.331Z,38.84
2023-04-30T11:16:26.379Z,38.84
2023-04-30T11:17:26.336Z,38.84
2023-04-30T11:18:26.318Z,38.84
2023-04-30T11:19:26.260Z,38.84
2023-04-30T11:20:26.293Z,38.84
2023-04-30T11:21:26.240Z,38.84
2023-04-30T11:22:26.282Z,38.84
2023-04-30T11:23:38.847Z,38.84
2023-04-30T11:24:28.130Z,38.84
2023-04-30T11:25:26.192Z,38.84
2023-04-30T11:26:26.233Z,38.84
2023-04-30T11:27:26.172Z,38.84
2023-04-30T11:28:26.219Z,38.84
2023-04-30T11:29:26.185Z,38.94
2023-04-30T11:30:26.217Z,38.94
2023-04-30T11:31:26.159Z,38.94
2023-04-30T11:32:26.268Z,38.94
2023-04-30T11:33:26.114Z,38.94
2023-04-30T11:34:26.164Z,38.94
2023-04-30T11:35:26.088Z,38.94
2023-04-30T11:36:26.126Z,38.94
2023-04-30T11:37:26.061Z,38.94
2023-04-30T11:38:26.113Z,38.94
2023-04-30T11:39:26.038Z,38.94
2023-04-30T11:40:26.080Z,38.94
2023-04-30T11:41:26.021Z,38.94
2023-04-30T11:42:26.069Z,38.94
2023-04-30T11:43:26.005Z,38.94
2023-04-30T11:44:26.047Z,38.94
2023-04-30T11:45:25.982Z,38.94
2023-04-30T11:46:26.065Z,39.04
2023-04-30T11:47:25.980Z,38.94
2023-04-30T11:48:26.002Z,39.04
2023-04-30T11:49:25.928Z,39.06
2023-04-30T11:50:25.984Z,39.06
2023-04-30T11:51:25.907Z,39.06
2023-04-30T11:52:25.977Z,39.06
2023-04-30T11:53:25.894Z,39.06
2023-04-30T11:54:25.935Z,39.16
2023-04-30T11:55:25.862Z,39.16
2023-04-30T11:56:25.908Z,39.06
2023-04-30T11:57:25.843Z,39.16
2023-04-30T11:58:25.881Z,39.16
2023-04-30T11:59:25.825Z,39.06
2023-04-30T12:00:25.909Z,39.16
2023-04-30T12:01:25.828Z,39.16
2023-04-30T12:02:26.095Z,39.16
2023-04-30T12:03:25.830Z,39.16
2023-04-30T12:04:25.872Z,39.16
2023-04-30T12:05:25.769Z,39.16
2023-04-30T12:06:25.911Z,39.16
2023-04-30T12:07:25.736Z,39.16
2023-04-30T12:08:25.782Z,39.16
2023-04-30T12:09:25.713Z,39.16
2023-04-30T12:10:25.871Z,39.26
2023-04-30T12:11:25.993Z,39.26
2023-04-30T12:12:25.758Z,39.26
2023-04-30T12:13:25.672Z,39.26
2023-04-30T12:14:25.719Z,39.26
2023-04-30T12:15:25.646Z,39.26
2023-04-30T12:16:25.776Z,39.26
2023-04-30T12:17:25.670Z,39.26
2023-04-30T12:18:25.692Z,39.26
2023-04-30T12:19:25.607Z,39.26
2023-04-30T12:20:25.656Z,39.26
2023-04-30T12:21:25.589Z,39.26
2023-04-30T12:22:25.629Z,39.26
2023-04-30T12:23:25.561Z,39.26
2023-04-30T12:24:25.606Z,39.26
2023-04-30T12:25:25.550Z,39.26
2023-04-30T12:26:25.583Z,39.26
2023-04-30T12:27:25.516Z,39.26
2023-04-30T12:28:25.559Z,39.26
2023-04-30T12:29:25.514Z,39.26
2023-04-30T12:30:25.526Z,39.26
2023-04-30T12:31:25.527Z,39.26
2023-04-30T12:32:25.618Z,39.26
2023-04-30T12:33:25.447Z,39.36
2023-04-30T12:34:25.503Z,39.36
2023-04-30T12:35:25.427Z,39.36
2023-04-30T12:36:25.478Z,39.36
2023-04-30T12:37:25.407Z,39.26
2023-04-30T12:38:25.461Z,39.36
2023-04-30T12:39:25.384Z,39.36
2023-04-30T12:40:25.426Z,39.36
2023-04-30T12:41:25.362Z,39.36
2023-04-30T12:42:25.412Z,39.36
2023-04-30T12:43:25.346Z,39.36
2023-04-30T12:44:25.403Z,39.36
2023-04-30T12:45:25.300Z,39.36
2023-04-30T12:46:25.419Z,39.36
2023-04-30T12:47:25.319Z,39.36
2023-04-30T12:48:25.371Z,39.36
2023-04-30T12:49:25.264Z,39.36
2023-04-30T12:50:25.328Z,39.36
2023-04-30T12:51:25.241Z,39.36
2023-04-30T12:52:25.327Z,39.36